Terminal Aerodrome Forecast
Issued by NWS Lake Charles, LA

Home | Current Version | Previous Version | Text Only | Print | Product List | Glossary On
Versions: 1 2 3 4 5 6 7 8 9 10 11 12 13 14 15
000
FTUS44 KLCH 311700
TAFARA
TAF
KARA 311722Z 3118/0118 09006KT P6SM BKN250
     FM312000 12006KT P6SM VCSH SCT050 BKN200
     FM010100 00000KT P6SM SCT030 BKN150
     FM011300 19005KT P6SM VCSH BKN040=

USA.gov is the U.S. government's official web portal to all federal, state and local government web resources and services.